Time;durP1;ratioP1;P1;durP2;ratioP2;P2;SDS_P1;SDS_P2;PMS_P1;PMS_P2;Temp;Humidity;BMP_temperature;BMP_pressure;BME280_temperature;BME280_humidity;BME280_pressure;Samples;Min_cycle;Max_cycle;Signal;HPM_P1;HPM_P2
2021/10/30 00:02:23;;;;;;;2.47;2.27;;;;;;;;;;5045279;28;20213;-66
2021/10/30 00:04:53;;;;;;;3.20;2.50;;;;;;;;;;5039812;28;20206;-66
2021/10/30 00:07:27;;;;;;;2.13;1.93;;;;;;;;;;5044829;28;20198;-66
2021/10/30 00:09:58;;;;;;;2.97;2.67;;;;;;;;;;5037487;28;20677;-66
2021/10/30 00:12:29;;;;;;;2.97;2.67;;;;;;;;;;5040190;28;20663;-66
2021/10/30 00:15:01;;;;;;;3.53;2.97;;;;;;;;;;5038927;28;20203;-66
2021/10/30 00:17:32;;;;;;;3.00;2.70;;;;;;;;;;5046821;28;20834;-66
2021/10/30 00:20:05;;;;;;;4.47;2.90;;;;;;;;;;5038871;28;20942;-66
2021/10/30 00:22:36;;;;;;;3.07;2.50;;;;;;;;;;5036603;28;20191;-66
2021/10/30 00:25:06;;;;;;;2.97;2.67;;;;;;;;;;5034305;28;20218;-66
2021/10/30 00:27:37;;;;;;;3.60;2.80;;;;;;;;;;5032795;28;20694;-66
2021/10/30 00:30:09;;;;;;;3.17;2.67;;;;;;;;;;5041068;28;20276;-66
2021/10/30 00:32:37;;;;;;;4.10;3.30;;;;;;;;;;5050001;28;20194;-66
2021/10/30 00:35:09;;;;;;;3.43;2.80;;;;;;;;;;5025922;28;20193;-66
2021/10/30 00:37:39;;;;;;;3.40;2.70;;;;;;;;;;5047009;28;20234;-66
2021/10/30 00:40:11;;;;;;;3.43;2.90;;;;;;;;;;5045813;28;20195;-66
2021/10/30 00:42:44;;;;;;;3.60;2.90;;;;;;;;;;5039114;28;20257;-67
2021/10/30 00:45:14;;;;;;;3.50;2.60;;;;;;;;;;5040955;28;20422;-66
2021/10/30 00:47:41;;;;;;;2.90;2.60;;;;;;;;;;5035051;28;21021;-66
2021/10/30 00:50:13;;;;;;;2.87;2.30;;;;;;;;;;5037809;28;20214;-66
2021/10/30 00:52:46;;;;;;;2.60;2.33;;;;;;;;;;5045390;28;20214;-66
2021/10/30 00:55:16;;;;;;;4.23;2.30;;;;;;;;;;4994601;28;20210;-66
2021/10/30 00:57:48;;;;;;;3.27;2.63;;;;;;;;;;5042096;28;20222;-66
2021/10/30 01:00:18;;;;;;;2.63;2.43;;;;;;;;;;5034435;28;20206;-66
2021/10/30 01:02:51;;;;;;;3.77;2.80;;;;;;;;;;5038094;28;20285;-66
2021/10/30 01:05:23;;;;;;;3.97;2.90;;;;;;;;;;5013763;28;20194;-66
2021/10/30 01:07:56;;;;;;;5.00;2.70;;;;;;;;;;5041368;28;20216;-66
2021/10/30 01:10:26;;;;;;;3.80;3.40;;;;;;;;;;5015686;28;20198;-66
2021/10/30 01:12:56;;;;;;;3.63;3.00;;;;;;;;;;5036893;28;20222;-66
2021/10/30 01:15:31;;;;;;;3.97;3.13;;;;;;;;;;5028099;28;20229;-66
2021/10/30 01:17:59;;;;;;;4.27;3.27;;;;;;;;;;5031523;28;20249;-66
2021/10/30 01:20:30;;;;;;;5.07;3.30;;;;;;;;;;5046071;28;20202;-66
2021/10/30 01:23:01;;;;;;;3.37;3.03;;;;;;;;;;5037724;28;20230;-66
2021/10/30 01:25:35;;;;;;;3.40;2.80;;;;;;;;;;5025377;28;20240;-66
2021/10/30 01:28:06;;;;;;;4.50;3.33;;;;;;;;;;5059809;28;20303;-66
2021/10/30 01:30:33;;;;;;;3.57;3.03;;;;;;;;;;5061937;28;20202;-66
2021/10/30 01:33:18;;;;;;;3.57;3.00;;;;;;;;;;5066857;28;20233;-67
2021/10/30 01:35:48;;;;;;;3.67;2.87;;;;;;;;;;5059363;28;20210;-66
2021/10/30 01:38:21;;;;;;;3.63;3.03;;;;;;;;;;5056800;28;20712;-66
2021/10/30 01:40:54;;;;;;;4.63;3.20;;;;;;;;;;5049072;28;20198;-66
2021/10/30 01:43:24;;;;;;;3.60;3.00;;;;;;;;;;5051831;28;20206;-66
2021/10/30 01:45:55;;;;;;;3.70;3.00;;;;;;;;;;5045827;28;20194;-66
2021/10/30 01:48:31;;;;;;;5.13;3.63;;;;;;;;;;5065358;28;20218;-66
2021/10/30 01:51:02;;;;;;;4.27;3.30;;;;;;;;;;5051431;28;20206;-66
2021/10/30 01:53:33;;;;;;;5.07;3.40;;;;;;;;;;5052890;28;20182;-66
2021/10/30 01:56:03;;;;;;;4.10;3.20;;;;;;;;;;5061026;28;20209;-66
2021/10/30 01:58:34;;;;;;;5.10;3.30;;;;;;;;;;5050742;28;20585;-66
2021/10/30 02:01:06;;;;;;;4.00;3.30;;;;;;;;;;5062117;28;20213;-66
2021/10/30 02:03:39;;;;;;;4.90;3.40;;;;;;;;;;5075956;28;20654;-66
2021/10/30 02:06:10;;;;;;;5.57;3.63;;;;;;;;;;5063909;28;20284;-66
2021/10/30 02:08:45;;;;;;;5.13;3.67;;;;;;;;;;5077419;28;20201;-66
2021/10/30 02:11:15;;;;;;;4.67;3.00;;;;;;;;;;5056977;28;20296;-66
2021/10/30 02:13:48;;;;;;;3.70;3.00;;;;;;;;;;5053082;28;20403;-66
2021/10/30 02:16:18;;;;;;;5.17;3.50;;;;;;;;;;5063518;28;20210;-66
2021/10/30 02:18:55;;;;;;;4.17;2.93;;;;;;;;;;5071960;28;20197;-66
2021/10/30 02:21:25;;;;;;;3.90;3.27;;;;;;;;;;5042202;28;20201;-66
2021/10/30 02:24:04;;;;;;;4.43;3.37;;;;;;;;;;5055005;28;20708;-66
2021/10/30 02:26:35;;;;;;;4.43;3.17;;;;;;;;;;5059302;28;20826;-66
2021/10/30 02:29:06;;;;;;;4.13;3.20;;;;;;;;;;5067998;28;20295;-66
2021/10/30 02:31:41;;;;;;;4.67;3.40;;;;;;;;;;5054585;28;20221;-66
2021/10/30 02:34:13;;;;;;;5.13;3.57;;;;;;;;;;5060122;28;20197;-66
2021/10/30 02:36:43;;;;;;;5.27;3.97;;;;;;;;;;5053598;28;20206;-66
2021/10/30 02:39:13;;;;;;;5.20;3.73;;;;;;;;;;5060874;28;20245;-66
2021/10/30 02:41:42;;;;;;;5.77;4.00;;;;;;;;;;5061195;28;20198;-66
2021/10/30 02:44:10;;;;;;;4.07;3.37;;;;;;;;;;5065322;28;20193;-66
2021/10/30 02:46:55;;;;;;;6.37;4.47;;;;;;;;;;5068192;28;20284;-66
2021/10/30 02:49:25;;;;;;;4.43;3.20;;;;;;;;;;5053459;28;20271;-66
2021/10/30 02:51:56;;;;;;;6.13;4.20;;;;;;;;;;5051477;28;20195;-66
2021/10/30 02:54:25;;;;;;;5.67;4.17;;;;;;;;;;5064146;28;20190;-67
2021/10/30 02:56:56;;;;;;;6.33;3.90;;;;;;;;;;5054884;28;20680;-66
2021/10/30 02:59:27;;;;;;;5.00;3.80;;;;;;;;;;5044352;28;20588;-66
2021/10/30 03:02:09;;;;;;;5.70;3.77;;;;;;;;;;5047386;28;20220;-66
2021/10/30 03:04:39;;;;;;;4.53;3.60;;;;;;;;;;5059049;28;20213;-66
2021/10/30 03:07:10;;;;;;;4.67;3.37;;;;;;;;;;5058391;28;20640;-66
2021/10/30 03:09:39;;;;;;;4.30;3.10;;;;;;;;;;5054058;28;20190;-66
2021/10/30 03:12:09;;;;;;;3.90;3.00;;;;;;;;;;5060716;28;20221;-66
2021/10/30 03:14:41;;;;;;;4.00;3.30;;;;;;;;;;5063222;28;20212;-66
2021/10/30 03:17:11;;;;;;;3.57;2.70;;;;;;;;;;5066829;28;20206;-66
2021/10/30 03:19:42;;;;;;;5.37;2.63;;;;;;;;;;5066393;28;20632;-66
2021/10/30 03:22:11;;;;;;;3.83;2.83;;;;;;;;;;5043976;28;20680;-66
2021/10/30 03:24:45;;;;;;;2.90;2.20;;;;;;;;;;5048607;28;20227;-66
2021/10/30 03:27:14;;;;;;;2.50;2.30;;;;;;;;;;5063416;28;20218;-66
2021/10/30 03:29:43;;;;;;;3.50;2.27;;;;;;;;;;5062964;28;20208;-66
2021/10/30 03:32:14;;;;;;;2.67;2.10;;;;;;;;;;5060194;28;20206;-67
2021/10/30 03:34:42;;;;;;;2.20;2.00;;;;;;;;;;5064428;28;20284;-66
2021/10/30 03:37:12;;;;;;;2.10;1.90;;;;;;;;;;5039558;28;20206;-66
2021/10/30 03:39:43;;;;;;;2.60;2.07;;;;;;;;;;5055128;28;20216;-66
2021/10/30 03:42:13;;;;;;;1.77;1.60;;;;;;;;;;5061147;28;20197;-66
2021/10/30 03:44:49;;;;;;;2.37;1.73;;;;;;;;;;5052835;28;20627;-66
2021/10/30 03:47:20;;;;;;;3.73;1.80;;;;;;;;;;5040586;28;20629;-66
2021/10/30 03:49:51;;;;;;;1.60;1.50;;;;;;;;;;5062686;28;20214;-66
2021/10/30 03:52:22;;;;;;;2.40;1.80;;;;;;;;;;5059916;28;20269;-66
2021/10/30 03:54:57;;;;;;;1.87;1.67;;;;;;;;;;5064454;28;20206;-66
2021/10/30 03:57:27;;;;;;;1.73;1.63;;;;;;;;;;5063246;28;20193;-66
2021/10/30 03:59:58;;;;;;;1.77;1.67;;;;;;;;;;5044347;28;20234;-66
2021/10/30 04:02:30;;;;;;;2.13;1.93;;;;;;;;;;5061667;28;20622;-66
2021/10/30 04:05:02;;;;;;;1.80;1.70;;;;;;;;;;5066318;28;20198;-66
2021/10/30 04:07:32;;;;;;;2.10;1.90;;;;;;;;;;5061897;28;20545;-66
2021/10/30 04:10:00;;;;;;;2.23;2.03;;;;;;;;;;5045051;28;20203;-66
2021/10/30 04:12:30;;;;;;;2.10;1.90;;;;;;;;;;5057501;28;20644;-66
2021/10/30 04:15:03;;;;;;;2.37;1.83;;;;;;;;;;5067264;28;20234;-66
2021/10/30 04:17:33;;;;;;;2.70;2.13;;;;;;;;;;5059036;28;20194;-66
2021/10/30 04:20:03;;;;;;;4.80;2.17;;;;;;;;;;5035403;28;20243;-66
2021/10/30 04:22:33;;;;;;;3.87;2.30;;;;;;;;;;5062105;28;20207;-66
2021/10/30 04:25:05;;;;;;;2.40;2.00;;;;;;;;;;5064140;28;21165;-66
2021/10/30 04:27:35;;;;;;;1.87;1.77;;;;;;;;;;5049029;28;20206;-66
2021/10/30 04:30:17;;;;;;;2.60;2.40;;;;;;;;;;5060041;28;20824;-66
2021/10/30 04:32:49;;;;;;;2.40;2.20;;;;;;;;;;5050025;28;20205;-66
2021/10/30 04:35:19;;;;;;;3.23;2.67;;;;;;;;;;5061830;28;20555;-66
2021/10/30 04:37:46;;;;;;;3.33;2.10;;;;;;;;;;5058323;28;20204;-66
2021/10/30 04:40:19;;;;;;;2.27;2.07;;;;;;;;;;5061608;28;20276;-66
2021/10/30 04:42:48;;;;;;;2.83;2.10;;;;;;;;;;5055016;28;20208;-66
2021/10/30 04:45:16;;;;;;;2.30;1.93;;;;;;;;;;5059799;28;20198;-66
2021/10/30 04:47:45;;;;;;;2.83;2.30;;;;;;;;;;5032718;28;20202;-66
2021/10/30 04:50:16;;;;;;;2.73;2.50;;;;;;;;;;5042633;28;20209;-66
2021/10/30 04:52:46;;;;;;;2.50;2.30;;;;;;;;;;5068238;28;20200;-66
2021/10/30 04:55:17;;;;;;;2.33;2.13;;;;;;;;;;5060407;28;20210;-65
2021/10/30 04:57:49;;;;;;;2.30;2.10;;;;;;;;;;5062762;28;20668;-66
2021/10/30 05:00:18;;;;;;;2.40;2.20;;;;;;;;;;5038657;28;20216;-66
2021/10/30 05:02:46;;;;;;;2.97;2.43;;;;;;;;;;5063218;28;20201;-66
2021/10/30 05:05:18;;;;;;;2.50;2.30;;;;;;;;;;5064546;28;20215;-66
2021/10/30 05:07:48;;;;;;;2.97;2.30;;;;;;;;;;5066639;28;20198;-66
2021/10/30 05:10:20;;;;;;;2.20;2.00;;;;;;;;;;5067382;28;20277;-66
2021/10/30 05:12:51;;;;;;;3.40;2.30;;;;;;;;;;5056718;28;20679;-66
2021/10/30 05:15:23;;;;;;;2.83;2.57;;;;;;;;;;5047028;28;20190;-66
2021/10/30 05:17:55;;;;;;;2.87;2.20;;;;;;;;;;5050884;28;20194;-66
2021/10/30 05:20:23;;;;;;;3.10;2.00;;;;;;;;;;5067203;28;20201;-66
2021/10/30 05:22:55;;;;;;;2.07;1.87;;;;;;;;;;5060829;28;20584;-66
2021/10/30 05:25:24;;;;;;;2.37;2.10;;;;;;;;;;5043695;28;20244;-66
2021/10/30 05:27:52;;;;;;;2.23;2.03;;;;;;;;;;5066198;28;20194;-66
2021/10/30 05:30:24;;;;;;;3.43;2.50;;;;;;;;;;5070910;28;20205;-66
2021/10/30 05:32:55;;;;;;;2.37;2.17;;;;;;;;;;5067550;28;20263;-66
2021/10/30 05:35:25;;;;;;;2.10;1.90;;;;;;;;;;5062092;28;20674;-66
2021/10/30 05:37:54;;;;;;;2.40;2.20;;;;;;;;;;5057023;28;20210;-66
2021/10/30 05:40:24;;;;;;;2.20;2.00;;;;;;;;;;5067560;28;20221;-67
2021/10/30 05:42:58;;;;;;;2.40;2.20;;;;;;;;;;5065703;28;20213;-67
2021/10/30 05:45:28;;;;;;;3.07;2.30;;;;;;;;;;5070333;28;20207;-66
2021/10/30 05:47:59;;;;;;;2.43;2.23;;;;;;;;;;5061681;28;20197;-67
2021/10/30 05:50:32;;;;;;;2.57;1.93;;;;;;;;;;5037271;28;20194;-67
2021/10/30 05:53:02;;;;;;;2.63;2.27;;;;;;;;;;5065196;28;20187;-67
2021/10/30 05:55:29;;;;;;;3.13;2.83;;;;;;;;;;5052041;28;20712;-67
2021/10/30 05:58:00;;;;;;;2.70;2.33;;;;;;;;;;5055654;28;20202;-66
2021/10/30 06:00:31;;;;;;;2.40;2.20;;;;;;;;;;5067679;28;20216;-66
2021/10/30 06:03:05;;;;;;;3.23;2.40;;;;;;;;;;5059522;28;20191;-67
2021/10/30 06:05:37;;;;;;;2.40;2.20;;;;;;;;;;5056182;28;20198;-66
2021/10/30 06:08:09;;;;;;;3.03;2.27;;;;;;;;;;5062185;28;20202;-66
2021/10/30 06:10:53;;;;;;;2.30;2.10;;;;;;;;;;5049463;28;20213;-67
2021/10/30 06:13:25;;;;;;;2.90;1.97;;;;;;;;;;5039230;28;20222;-67
2021/10/30 06:16:04;;;;;;;2.40;2.10;;;;;;;;;;5058432;28;20256;-66
2021/10/30 06:18:35;;;;;;;2.27;2.00;;;;;;;;;;5054016;28;20220;-67
2021/10/30 06:21:07;;;;;;;2.53;2.33;;;;;;;;;;5072297;28;20205;-66
2021/10/30 06:23:36;;;;;;;2.73;2.30;;;;;;;;;;5068380;28;20217;-66
2021/10/30 06:26:08;;;;;;;3.30;2.60;;;;;;;;;;5073875;28;20229;-67
2021/10/30 06:28:43;;;;;;;3.50;2.30;;;;;;;;;;5063565;28;20274;-67
2021/10/30 06:31:21;;;;;;;2.50;2.20;;;;;;;;;;5057672;28;20258;-66
2021/10/30 06:33:55;;;;;;;2.63;2.43;;;;;;;;;;5054622;28;20252;-66
2021/10/30 06:36:31;;;;;;;2.60;2.40;;;;;;;;;;5061134;28;20297;-66
2021/10/30 06:39:11;;;;;;;2.37;2.00;;;;;;;;;;5062580;28;20328;-66
2021/10/30 06:41:48;;;;;;;3.30;2.73;;;;;;;;;;5065926;28;20269;-66
2021/10/30 06:44:28;;;;;;;3.10;2.37;;;;;;;;;;5064000;28;20315;-66
2021/10/30 06:47:02;;;;;;;2.10;2.00;;;;;;;;;;5068876;28;20196;-66
2021/10/30 06:49:36;;;;;;;3.10;2.43;;;;;;;;;;5066414;28;20217;-66
2021/10/30 06:52:07;;;;;;;3.03;2.43;;;;;;;;;;5060220;28;20206;-65
2021/10/30 06:54:41;;;;;;;2.57;2.00;;;;;;;;;;5063421;28;20202;-65
2021/10/30 06:57:11;;;;;;;3.07;2.77;;;;;;;;;;5077870;28;20275;-65
2021/10/30 06:59:44;;;;;;;3.23;2.63;;;;;;;;;;5063222;28;20222;-65
2021/10/30 07:02:19;;;;;;;4.00;2.57;;;;;;;;;;5052307;28;20219;-63
2021/10/30 07:04:51;;;;;;;3.23;2.47;;;;;;;;;;5058917;28;20271;-65
2021/10/30 07:07:23;;;;;;;4.30;3.03;;;;;;;;;;5064272;28;20601;-66
2021/10/30 07:09:59;;;;;;;8.10;4.40;;;;;;;;;;5056487;28;20433;-65
2021/10/30 07:12:44;;;;;;;8.93;5.07;;;;;;;;;;5064714;28;20194;-66
2021/10/30 07:15:14;;;;;;;12.23;6.67;;;;;;;;;;5064747;28;20217;-65
2021/10/30 07:17:47;;;;;;;9.97;5.03;;;;;;;;;;5040998;28;20206;-65
2021/10/30 07:20:19;;;;;;;11.13;4.77;;;;;;;;;;5059149;28;20238;-66
2021/10/30 07:22:49;;;;;;;9.83;4.80;;;;;;;;;;5014553;28;20198;-66
2021/10/30 07:25:35;;;;;;;5.77;3.90;;;;;;;;;;5051341;28;20370;-65
2021/10/30 07:28:06;;;;;;;11.30;4.07;;;;;;;;;;5017037;28;20703;-65
2021/10/30 07:30:38;;;;;;;5.67;3.40;;;;;;;;;;5038664;28;20203;-65
2021/10/30 07:33:06;;;;;;;5.43;3.50;;;;;;;;;;5038074;28;20652;-65
2021/10/30 07:35:42;;;;;;;6.07;3.70;;;;;;;;;;5038740;28;20214;-68
2021/10/30 07:38:14;;;;;;;4.97;3.63;;;;;;;;;;5041093;28;20669;-66
2021/10/30 07:40:46;;;;;;;3.77;2.97;;;;;;;;;;5024903;28;20214;-66
2021/10/30 07:43:16;;;;;;;5.10;3.10;;;;;;;;;;5045930;28;20208;-66
2021/10/30 07:45:48;;;;;;;3.73;3.20;;;;;;;;;;5038258;28;20191;-65
2021/10/30 07:48:32;;;;;;;5.33;3.20;;;;;;;;;;5040151;28;20936;-65
2021/10/30 07:51:01;;;;;;;3.33;2.87;;;;;;;;;;5039649;28;20213;-64
2021/10/30 07:53:32;;;;;;;4.27;2.60;;;;;;;;;;5039617;28;20209;-66
2021/10/30 07:56:04;;;;;;;5.17;2.90;;;;;;;;;;5037930;28;20190;-65
2021/10/30 07:58:34;;;;;;;3.33;2.77;;;;;;;;;;5043574;28;20225;-66
2021/10/30 08:01:05;;;;;;;3.77;2.93;;;;;;;;;;5042389;28;20205;-67
2021/10/30 08:03:37;;;;;;;3.27;2.67;;;;;;;;;;5037001;28;20210;-67
2021/10/30 08:06:18;;;;;;;4.53;2.50;;;;;;;;;;5032998;28;20195;-67
2021/10/30 08:08:47;;;;;;;2.53;2.30;;;;;;;;;;5040324;28;20234;-66
2021/10/30 08:11:30;;;;;;;5.23;2.77;;;;;;;;;;5033516;28;20289;-66
2021/10/30 08:14:00;;;;;;;2.77;2.50;;;;;;;;;;5027807;28;20198;-66
2021/10/30 08:16:31;;;;;;;5.30;3.10;;;;;;;;;;5045882;28;20186;-66
2021/10/30 08:19:00;;;;;;;4.97;3.97;;;;;;;;;;5024273;28;20234;-66
2021/10/30 08:21:31;;;;;;;6.10;3.97;;;;;;;;;;5031509;28;20292;-65
2021/10/30 08:24:22;;;;;;;3.97;3.33;;;;;;;;;;5022579;28;20216;-66
2021/10/30 08:26:55;;;;;;;3.97;3.30;;;;;;;;;;5031913;28;20318;-66
2021/10/30 08:29:24;;;;;;;4.37;3.33;;;;;;;;;;5041378;28;20215;-66
2021/10/30 08:31:54;;;;;;;4.50;2.87;;;;;;;;;;5056145;28;20562;-67
2021/10/30 08:34:26;;;;;;;4.90;3.10;;;;;;;;;;5041868;28;20206;-66
2021/10/30 08:36:56;;;;;;;3.80;2.93;;;;;;;;;;5046405;28;20239;-66
2021/10/30 08:39:26;;;;;;;5.57;2.90;;;;;;;;;;5039130;28;20226;-67
2021/10/30 08:41:57;;;;;;;5.00;2.67;;;;;;;;;;5041348;28;20537;-67
2021/10/30 08:44:25;;;;;;;3.60;3.10;;;;;;;;;;5044077;28;20194;-66
2021/10/30 08:46:54;;;;;;;3.00;2.40;;;;;;;;;;5044798;28;20772;-66
2021/10/30 08:49:27;;;;;;;4.60;2.60;;;;;;;;;;5044033;28;20202;-66
2021/10/30 08:52:02;;;;;;;3.83;2.30;;;;;;;;;;5036553;28;20578;-67
2021/10/30 08:54:33;;;;;;;3.00;2.37;;;;;;;;;;5048119;28;20198;-67
2021/10/30 08:57:04;;;;;;;5.43;2.17;;;;;;;;;;5016294;28;20641;-67
2021/10/30 08:59:42;;;;;;;2.50;2.30;;;;;;;;;;5042050;28;20214;-66
2021/10/30 09:02:34;;;;;;;2.40;2.20;;;;;;;;;;5012021;28;20633;-67
2021/10/30 09:05:22;;;;;;;5.30;2.50;;;20.70;60.30;;;;;;5042326;28;20407;-69
2021/10/30 09:07:59;;;;;;;3.97;2.67;;;20.60;60.80;;;;;;5009459;28;20393;-69
2021/10/30 09:10:34;;;;;;;3.07;2.17;;;20.70;60.40;;;;;;5039173;28;20211;-67
2021/10/30 09:13:09;;;;;;;2.60;2.10;;;20.70;60.20;;;;;;5046466;28;20206;-65
2021/10/30 09:15:46;;;;;;;2.50;2.07;;;20.70;60.50;;;;;;5018484;28;20223;-66
2021/10/30 09:18:37;;;;;;;2.93;2.10;;;20.70;60.60;;;;;;5010195;28;20244;-66
2021/10/30 09:21:15;;;;;;;3.20;2.33;;;20.70;60.90;;;;;;5042599;28;20310;-68
2021/10/30 09:23:46;;;;;;;2.70;2.33;;;20.70;62.10;;;;;;5024565;28;20232;-68
2021/10/30 09:26:31;;;;;;;4.40;2.37;;;20.70;62.20;;;;;;5047971;28;20230;-69
2021/10/30 09:29:09;;;;;;;3.13;2.43;;;20.70;62.00;;;;;;5058672;28;20194;-68
2021/10/30 09:31:47;;;;;;;4.57;2.37;;;20.70;62.00;;;;;;5058168;28;20196;-68
2021/10/30 09:34:28;;;;;;;2.63;2.30;;;20.70;62.30;;;;;;5059705;28;20198;-69
2021/10/30 09:36:58;;;;;;;2.47;2.23;;;20.70;62.40;;;;;;5058592;28;20194;-69
2021/10/30 09:39:29;;;;;;;2.73;2.30;;;20.80;62.40;;;;;;5054666;28;20594;-70
2021/10/30 09:42:00;;;;;;;2.03;1.83;;;20.70;62.40;;;;;;5032883;28;20221;-70
2021/10/30 09:44:32;;;;;;;3.30;2.00;;;20.80;62.30;;;;;;5051850;28;20252;-68
2021/10/30 09:47:02;;;;;;;2.43;2.23;;;20.80;62.10;;;;;;5045006;28;20652;-68
2021/10/30 09:49:36;;;;;;;2.97;2.27;;;20.80;62.10;;;;;;5064264;28;20243;-66
2021/10/30 09:52:19;;;;;;;2.10;1.90;;;20.80;62.30;;;;;;5060697;28;20236;-67
2021/10/30 09:54:51;;;;;;;4.47;2.13;;;20.80;62.00;;;;;;5068445;28;20711;-68
2021/10/30 09:57:31;;;;;;;2.57;2.27;;;20.80;62.40;;;;;;5051278;28;20707;-66
2021/10/30 10:00:07;;;;;;;3.53;2.27;;;20.80;63.00;;;;;;5021114;28;20221;-66
2021/10/30 10:03:02;;;;;;;3.60;2.50;;;20.70;63.30;;;;;;5042656;28;20186;-67
2021/10/30 10:05:36;;;;;;;3.40;2.53;;;20.60;63.60;;;;;;5039540;28;20217;-66
2021/10/30 10:08:13;;;;;;;2.30;2.10;;;20.60;63.80;;;;;;5064392;28;20258;-66
2021/10/30 10:10:42;;;;;;;2.77;2.10;;;20.50;63.80;;;;;;5067325;28;20267;-66
2021/10/30 10:13:15;;;;;;;2.40;1.80;;;20.50;64.10;;;;;;5067505;28;20217;-66
2021/10/30 10:15:48;;;;;;;2.80;1.97;;;20.40;64.10;;;;;;5064371;28;20228;-66
2021/10/30 10:18:28;;;;;;;2.57;2.10;;;20.40;64.20;;;;;;5065997;28;20197;-67
2021/10/30 10:21:00;;;;;;;2.87;2.37;;;20.30;64.20;;;;;;5050308;28;20225;-66
2021/10/30 10:23:33;;;;;;;2.17;1.80;;;20.30;64.80;;;;;;5066158;28;20830;-67
2021/10/30 10:26:04;;;;;;;3.43;2.10;;;20.30;64.80;;;;;;5047213;28;20226;-67
2021/10/30 10:28:40;;;;;;;2.40;2.20;;;20.30;65.00;;;;;;5048901;28;20233;-66
2021/10/30 10:31:27;;;;;;;2.30;1.90;;;20.20;65.10;;;;;;5046693;28;20208;-66
2021/10/30 10:34:17;;;;;;;2.07;1.87;;;20.20;65.20;;;;;;5067407;28;20288;-66
2021/10/30 10:37:14;;;;;;;3.63;2.00;;;20.20;65.40;;;;;;5064404;28;20421;-65
2021/10/30 10:40:05;;;;;;;4.07;2.17;;;20.20;65.50;;;;;;5062645;28;20236;-66
2021/10/30 10:42:43;;;;;;;5.10;2.00;;;20.10;65.50;;;;;;5062231;28;20194;-65
2021/10/30 10:45:15;;;;;;;3.50;1.90;;;20.20;65.50;;;;;;5035592;28;20193;-66
2021/10/30 10:47:55;;;;;;;2.10;1.70;;;20.20;65.40;;;;;;5062825;28;20225;-65
2021/10/30 10:50:32;;;;;;;2.00;1.70;;;20.20;65.30;;;;;;5066766;28;20205;-64
2021/10/30 10:53:15;;;;;;;3.93;2.00;;;20.20;65.30;;;;;;5042275;28;20336;-65
2021/10/30 10:55:56;;;;;;;1.70;1.60;;;20.20;65.40;;;;;;5050008;28;20209;-66
2021/10/30 10:58:29;;;;;;;3.03;1.67;;;20.20;65.40;;;;;;5068509;28;20675;-65
2021/10/30 11:01:11;;;;;;;3.23;2.00;;;20.20;65.50;;;;;;5063225;28;20221;-66
2021/10/30 11:03:44;;;;;;;4.10;2.00;;;20.20;65.70;;;;;;5068434;28;20215;-65
2021/10/30 11:06:13;;;;;;;1.87;1.60;;;20.20;65.70;;;;;;5060089;28;20236;-66
2021/10/30 11:08:47;;;;;;;2.10;1.80;;;20.30;65.50;;;;;;5051795;28;20194;-66
2021/10/30 11:11:25;;;;;;;2.70;1.70;;;20.30;65.40;;;;;;5030773;28;20206;-66
2021/10/30 11:14:02;;;;;;;1.70;1.60;;;20.30;65.30;;;;;;5045202;28;20197;-65
2021/10/30 11:16:37;;;;;;;2.20;1.80;;;20.30;65.10;;;;;;5042500;28;20213;-65
2021/10/30 11:19:24;;;;;;;3.00;2.10;;;20.30;65.20;;;;;;5069789;28;20205;-65
2021/10/30 11:22:09;;;;;;;2.33;1.80;;;20.30;65.50;;;;;;5048995;28;20592;-65
2021/10/30 11:24:56;;;;;;;4.17;1.97;;;20.30;65.40;;;;;;5042717;28;20209;-65
2021/10/30 11:27:28;;;;;;;2.00;1.80;;;20.40;65.40;;;;;;5055226;28;20206;-66
2021/10/30 11:30:05;;;;;;;3.20;2.20;;;20.40;65.10;;;;;;5033959;28;20294;-65
2021/10/30 11:32:37;;;;;;;2.53;1.90;;;20.40;65.10;;;;;;5052419;28;20210;-66
2021/10/30 11:35:12;;;;;;;2.83;2.03;;;20.40;65.10;;;;;;5066932;28;20206;-65
2021/10/30 11:37:45;;;;;;;7.93;2.07;;;20.30;65.00;;;;;;5061799;28;20201;-63
2021/10/30 11:40:13;;;;;;;3.33;1.50;;;20.30;65.50;;;;;;5064968;28;20224;-65
2021/10/30 11:42:42;;;;;;;2.07;1.87;;;20.40;65.50;;;;;;5034143;28;20670;-65
2021/10/30 11:45:15;;;;;;;3.93;1.80;;;20.40;65.30;;;;;;5046611;28;20604;-65
2021/10/30 11:47:57;;;;;;;2.53;1.60;;;20.40;65.00;;;;;;5065398;28;20304;-65
2021/10/30 11:50:28;;;;;;;1.90;1.80;;;20.40;64.70;;;;;;5046433;28;20262;-64
2021/10/30 11:53:02;;;;;;;2.03;1.77;;;20.40;64.60;;;;;;5055922;28;20229;-64
2021/10/30 11:55:52;;;;;;;1.70;1.60;;;20.40;64.70;;;;;;5064819;28;20202;-65
2021/10/30 11:58:40;;;;;;;2.07;1.53;;;20.40;64.90;;;;;;5053144;28;20217;-65
2021/10/30 12:01:44;;;;;;;1.90;1.60;;;20.40;64.90;;;;;;5063797;28;20689;-63
2021/10/30 12:04:36;;;;;;;2.57;1.50;;;20.40;65.00;;;;;;5054418;28;20281;-64
2021/10/30 12:07:14;;;;;;;2.20;1.70;;;20.40;64.80;;;;;;5039929;28;20191;-63
2021/10/30 12:09:46;;;;;;;2.20;1.70;;;20.40;64.80;;;;;;5047062;28;20637;-63
2021/10/30 12:12:23;;;;;;;1.97;1.60;;;20.40;64.90;;;;;;5047733;28;20198;-64
2021/10/30 12:14:55;;;;;;;1.60;1.50;;;20.40;64.90;;;;;;5050296;28;20292;-64
2021/10/30 12:17:31;;;;;;;1.90;1.60;;;20.40;64.60;;;;;;5042198;28;20229;-65
2021/10/30 12:20:11;;;;;;;1.93;1.60;;;20.50;64.80;;;;;;5041389;28;20198;-65
2021/10/30 12:22:48;;;;;;;3.10;1.97;;;20.50;64.70;;;;;;5050264;28;20205;-66
2021/10/30 12:25:48;;;;;;;2.10;1.73;;;20.50;64.80;;;;;;5051880;28;20236;-65
2021/10/30 12:28:34;;;;;;;1.83;1.47;;;20.50;64.80;;;;;;5027259;28;20225;-65
2021/10/30 12:31:14;;;;;;;1.50;1.40;;;20.50;64.70;;;;;;5023970;28;20199;-65
2021/10/30 12:33:46;;;;;;;2.40;2.00;;;20.50;65.00;;;;;;5046704;28;20202;-66
2021/10/30 12:36:23;;;;;;;2.20;1.43;;;20.50;65.00;;;;;;5037946;28;20207;-66
2021/10/30 12:39:04;;;;;;;2.10;1.70;;;20.50;64.90;;;;;;5037639;28;20676;-66
2021/10/30 12:41:35;;;;;;;2.70;1.40;;;20.50;64.70;;;;;;5044061;28;20225;-66
2021/10/30 12:44:07;;;;;;;1.57;1.47;;;20.60;64.80;;;;;;5047278;28;20202;-66
2021/10/30 12:46:56;;;;;;;1.40;1.20;;;20.50;64.50;;;;;;5028253;28;20198;-65
2021/10/30 12:49:32;;;;;;;1.20;1.10;;;20.60;64.20;;;;;;5014571;28;20732;-65
2021/10/30 12:52:46;;;;;;;1.50;1.40;;;20.60;64.10;;;;;;5030085;28;20214;-67
2021/10/30 12:55:18;;;;;;;1.37;1.27;;;20.50;63.90;;;;;;5039940;28;20605;-65
2021/10/30 12:57:59;;;;;;;2.00;1.40;;;20.60;63.50;;;;;;5044059;28;20413;-65
2021/10/30 13:00:40;;;;;;;6.70;1.40;;;20.50;63.50;;;;;;5044100;28;20224;-67
2021/10/30 13:03:17;;;;;;;2.83;1.63;;;20.60;64.60;;;;;;5045429;28;20559;-66
2021/10/30 13:05:47;;;;;;;3.10;1.40;;;20.60;63.90;;;;;;5038242;28;20218;-67
2021/10/30 13:08:21;;;;;;;1.40;1.30;;;20.50;63.70;;;;;;5027906;28;20268;-67
2021/10/30 13:10:52;;;;;;;1.97;1.53;;;20.50;63.80;;;;;;5045734;28;20660;-66
2021/10/30 13:13:25;;;;;;;2.63;2.33;;;20.50;63.80;;;;;;5026268;28;20210;-66
2021/10/30 13:15:54;;;;;;;2.80;2.40;;;20.50;64.40;;;;;;5037375;28;20985;-66
2021/10/30 13:18:26;;;;;;;3.00;2.40;;;20.50;64.50;;;;;;5046573;28;20621;-67
2021/10/30 13:20:57;;;;;;;2.60;2.40;;;20.50;64.40;;;;;;5047918;28;20214;-66
2021/10/30 13:23:31;;;;;;;2.90;2.40;;;20.40;64.30;;;;;;5049339;28;20198;-67
2021/10/30 13:26:17;;;;;;;2.37;1.97;;;20.40;64.60;;;;;;5033063;28;20349;-67
2021/10/30 13:28:53;;;;;;;2.40;1.90;;;20.40;64.30;;;;;;5058231;28;20228;-67
2021/10/30 13:31:43;;;;;;;2.00;1.80;;;20.40;64.20;;;;;;5042476;28;20203;-66
2021/10/30 13:34:25;;;;;;;2.10;1.70;;;20.40;64.20;;;;;;5070493;28;20311;-67
2021/10/30 13:36:56;;;;;;;2.13;1.63;;;20.40;64.30;;;;;;5055921;28;20246;-67
2021/10/30 13:39:27;;;;;;;1.50;1.40;;;20.30;64.30;;;;;;5047353;28;20214;-67
2021/10/30 13:41:58;;;;;;;1.60;1.50;;;20.30;64.20;;;;;;5043578;28;20241;-66
2021/10/30 13:44:32;;;;;;;2.00;1.37;;;20.30;64.40;;;;;;5047077;28;20234;-66
2021/10/30 13:47:05;;;;;;;1.30;1.17;;;20.30;64.40;;;;;;5053979;28;20206;-66
2021/10/30 13:49:35;;;;;;;2.60;1.30;;;20.30;64.20;;;;;;5062643;28;20209;-66
2021/10/30 13:52:13;;;;;;;0.90;0.90;;;20.30;64.20;;;;;;5051849;28;20218;-66
2021/10/30 13:54:44;;;;;;;2.23;1.47;;;20.30;64.20;;;;;;5047137;28;20197;-66
2021/10/30 13:57:16;;;;;;;1.33;1.10;;;20.30;64.10;;;;;;5049388;28;20304;-66
2021/10/30 13:59:46;;;;;;;1.23;1.10;;;20.20;64.20;;;;;;5059074;28;20206;-66
2021/10/30 14:02:14;;;;;;;1.53;1.30;;;20.20;64.40;;;;;;5053074;28;20214;-66
2021/10/30 14:04:43;;;;;;;1.23;1.13;;;20.20;64.30;;;;;;5043051;28;20644;-66
2021/10/30 14:07:12;;;;;;;1.63;1.30;;;20.20;64.30;;;;;;5037559;28;20202;-66
2021/10/30 14:09:44;;;;;;;1.23;1.10;;;20.20;64.40;;;;;;5061265;28;20649;-66
2021/10/30 14:12:13;;;;;;;3.60;1.10;;;20.10;64.50;;;;;;5066990;28;20202;-66
2021/10/30 14:14:46;;;;;;;1.80;1.23;;;20.10;64.50;;;;;;5044571;28;20213;-66
2021/10/30 14:17:17;;;;;;;1.77;1.20;;;20.10;64.40;;;;;;5065377;28;20818;-67
2021/10/30 14:19:47;;;;;;;1.30;1.20;;;20.10;64.50;;;;;;5042392;28;20280;-66
2021/10/30 14:22:18;;;;;;;1.43;1.23;;;20.10;64.50;;;;;;5064211;28;20216;-65
2021/10/30 14:24:50;;;;;;;20.87;2.70;;;20.10;64.40;;;;;;5061021;28;20722;-68
2021/10/30 14:27:24;;;;;;;10.10;3.40;;;20.10;64.40;;;;;;5047567;28;20719;-66
2021/10/30 14:29:55;;;;;;;15.63;3.70;;;20.10;64.70;;;;;;5054082;28;20213;-66
2021/10/30 14:32:25;;;;;;;12.47;3.67;;;20.10;65.10;;;;;;5049039;28;20220;-66
2021/10/30 14:34:55;;;;;;;9.77;3.60;;;20.10;65.30;;;;;;5057966;28;20212;-65